Time;durP1;ratioP1;P1;durP2;ratioP2;P2;SDS_P1;SDS_P2;PMS_P1;PMS_P2;Temp;Humidity;BMP_temperature;BMP_pressure;BME280_temperature;BME280_humidity;BME280_pressure;Samples;Min_cycle;Max_cycle;Signal;HPM_P1;HPM_P2
2022/07/06 00:01:28;;;;;;;4.90;2.80;;;24.30;64.30;;;;;;5039825;28;20068;-61
2022/07/06 00:03:54;;;;;;;7.45;2.92;;;24.20;64.50;;;;;;5039900;28;20083;-61
2022/07/06 00:06:19;;;;;;;7.30;3.25;;;24.20;64.60;;;;;;5040138;28;20373;-61
2022/07/06 00:08:45;;;;;;;4.28;2.90;;;24.10;64.60;;;;;;5038915;28;20472;-62
2022/07/06 00:11:10;;;;;;;5.47;3.15;;;24.10;64.80;;;;;;5042397;28;20119;-61
2022/07/06 00:13:36;;;;;;;7.97;3.33;;;24.10;64.90;;;;;;5038307;28;20132;-63
2022/07/06 00:16:02;;;;;;;5.70;3.03;;;24.10;64.90;;;;;;5039329;28;20048;-63
2022/07/06 00:18:28;;;;;;;4.40;3.05;;;24.10;64.90;;;;;;5017489;28;20040;-62
2022/07/06 00:20:53;;;;;;;6.00;2.80;;;24.00;65.00;;;;;;5036335;28;20044;-61
2022/07/06 00:23:19;;;;;;;5.85;3.10;;;24.00;65.00;;;;;;5036172;28;20091;-63
2022/07/06 00:25:44;;;;;;;4.68;2.88;;;24.00;65.00;;;;;;5021398;28;20037;-62
2022/07/06 00:28:10;;;;;;;4.18;2.85;;;24.00;65.10;;;;;;5040712;28;20028;-62
2022/07/06 00:30:36;;;;;;;4.53;2.30;;;24.00;65.10;;;;;;5043295;28;20025;-61
2022/07/06 00:33:01;;;;;;;6.18;2.95;;;23.90;65.20;;;;;;5043772;28;20029;-62
2022/07/06 00:35:27;;;;;;;3.75;3.10;;;23.90;65.30;;;;;;5026411;28;20135;-61
2022/07/06 00:37:53;;;;;;;6.00;3.15;;;23.90;65.30;;;;;;5024978;28;20033;-62
2022/07/06 00:40:18;;;;;;;3.55;3.05;;;23.90;65.40;;;;;;5044335;28;20067;-62
2022/07/06 00:42:45;;;;;;;5.03;2.63;;;23.80;65.50;;;;;;5041827;28;20036;-62
2022/07/06 00:45:11;;;;;;;7.63;2.80;;;23.80;65.80;;;;;;5043307;28;20080;-62
2022/07/06 00:47:38;;;;;;;4.30;2.58;;;23.70;65.80;;;;;;5040934;28;20021;-61
2022/07/06 00:50:13;;;;;;;4.32;2.72;;;23.70;65.90;;;;;;5040156;28;20352;-61
2022/07/06 00:52:46;;;;;;;5.38;2.80;;;23.70;66.00;;;;;;5041368;28;20029;-61
2022/07/06 00:55:13;;;;;;;7.43;2.72;;;23.70;66.10;;;;;;5043273;28;20413;-62
2022/07/06 00:57:38;;;;;;;5.32;2.20;;;23.70;66.30;;;;;;5020012;28;20115;-64
2022/07/06 01:00:05;;;;;;;3.05;2.30;;;23.60;66.50;;;;;;5022566;28;20107;-63
2022/07/06 01:02:31;;;;;;;6.32;2.35;;;23.60;66.70;;;;;;5041119;28;20482;-64
2022/07/06 01:04:57;;;;;;;3.50;2.15;;;23.60;66.70;;;;;;5026503;28;20046;-62
2022/07/06 01:07:23;;;;;;;3.67;2.25;;;23.50;66.70;;;;;;5040588;28;20064;-63
2022/07/06 01:09:48;;;;;;;4.22;2.15;;;23.50;66.90;;;;;;5023244;28;20033;-62
2022/07/06 01:12:14;;;;;;;3.90;2.45;;;23.50;67.00;;;;;;5036442;28;20033;-62
2022/07/06 01:14:39;;;;;;;3.25;1.98;;;23.50;66.90;;;;;;5039129;28;20072;-62
2022/07/06 01:17:05;;;;;;;6.32;2.17;;;23.50;67.00;;;;;;5042493;28;20159;-61
2022/07/06 01:19:30;;;;;;;3.72;2.10;;;23.50;67.20;;;;;;5040898;28;20052;-61
2022/07/06 01:21:56;;;;;;;4.00;2.08;;;23.50;67.30;;;;;;5038884;28;20271;-65
2022/07/06 01:24:21;;;;;;;8.05;1.90;;;23.40;67.30;;;;;;5038123;28;20397;-62
2022/07/06 01:26:47;;;;;;;4.78;2.17;;;23.40;67.70;;;;;;5038951;28;20634;-61
2022/07/06 01:29:12;;;;;;;4.63;1.92;;;23.30;67.70;;;;;;5035416;28;20030;-62
2022/07/06 01:31:50;;;;;;;5.63;1.70;;;23.20;67.80;;;;;;5042536;28;20056;-62
2022/07/06 01:34:17;;;;;;;6.07;1.70;;;23.30;68.00;;;;;;5024216;28;20112;-63
2022/07/06 01:36:42;;;;;;;4.03;1.65;;;23.30;68.10;;;;;;5024243;28;20110;-61
2022/07/06 01:39:08;;;;;;;3.60;1.55;;;23.20;68.20;;;;;;5037347;28;20576;-61
2022/07/06 01:41:33;;;;;;;4.68;1.45;;;23.20;68.30;;;;;;5023128;28;20033;-61
2022/07/06 01:43:59;;;;;;;3.08;1.33;;;23.20;68.30;;;;;;5041157;28;20124;-63
2022/07/06 01:46:24;;;;;;;5.75;1.92;;;23.20;68.40;;;;;;5039649;28;20093;-61
2022/07/06 01:48:50;;;;;;;3.85;1.52;;;23.10;68.50;;;;;;5040878;28;20041;-62
2022/07/06 01:51:15;;;;;;;3.60;1.50;;;23.10;68.60;;;;;;5040217;28;20108;-62
2022/07/06 01:53:41;;;;;;;4.80;1.88;;;23.00;68.70;;;;;;5040752;28;20021;-63
2022/07/06 01:56:07;;;;;;;2.00;1.30;;;23.10;68.80;;;;;;5039211;28;20036;-62
2022/07/06 01:58:32;;;;;;;3.38;1.40;;;23.00;68.90;;;;;;5039358;28;20043;-61
2022/07/06 02:00:58;;;;;;;4.68;1.55;;;23.00;68.90;;;;;;5039330;28;20033;-61
2022/07/06 02:03:23;;;;;;;4.80;1.60;;;23.00;69.00;;;;;;5022434;28;20485;-61
2022/07/06 02:05:49;;;;;;;4.97;1.80;;;22.90;68.90;;;;;;5037902;28;20028;-62
2022/07/06 02:08:14;;;;;;;3.22;1.30;;;22.90;69.00;;;;;;5038402;28;20449;-62
2022/07/06 02:10:40;;;;;;;3.22;1.70;;;22.90;69.20;;;;;;5038748;28;20048;-61
2022/07/06 02:13:06;;;;;;;2.75;1.38;;;22.90;69.90;;;;;;5040081;28;20121;-61
2022/07/06 02:15:31;;;;;;;2.88;1.10;;;22.90;69.50;;;;;;5037677;28;20045;-62
2022/07/06 02:17:57;;;;;;;5.45;1.48;;;22.80;69.50;;;;;;5035662;28;20500;-61
2022/07/06 02:20:22;;;;;;;3.53;1.42;;;22.80;69.60;;;;;;5037641;28;20052;-62
2022/07/06 02:22:48;;;;;;;4.50;1.38;;;22.80;69.60;;;;;;5038171;28;20045;-62
2022/07/06 02:25:13;;;;;;;4.20;1.60;;;22.80;69.60;;;;;;5036553;28;21567;-62
2022/07/06 02:27:39;;;;;;;5.65;1.60;;;22.80;69.80;;;;;;5021992;28;20113;-61
2022/07/06 02:30:05;;;;;;;4.72;1.40;;;22.70;69.90;;;;;;5039372;28;20049;-61
2022/07/06 02:32:31;;;;;;;3.03;1.35;;;22.70;70.10;;;;;;5037903;28;20129;-61
2022/07/06 02:34:57;;;;;;;8.35;1.60;;;22.60;70.20;;;;;;5038173;28;20151;-63
2022/07/06 02:37:22;;;;;;;2.97;1.45;;;22.60;70.40;;;;;;5037119;28;20048;-62
2022/07/06 02:39:48;;;;;;;3.40;1.58;;;22.60;70.50;;;;;;5022878;28;20037;-62
2022/07/06 02:42:14;;;;;;;2.63;1.52;;;22.50;70.60;;;;;;5039586;28;20045;-62
2022/07/06 02:44:39;;;;;;;5.60;1.25;;;22.50;70.70;;;;;;5037762;28;20040;-62
2022/07/06 02:47:05;;;;;;;3.92;1.52;;;22.50;70.90;;;;;;5039085;28;20543;-61
2022/07/06 02:49:30;;;;;;;1.73;1.23;;;22.50;71.10;;;;;;5039660;28;20118;-62
2022/07/06 02:51:56;;;;;;;4.22;1.40;;;22.40;71.10;;;;;;5039928;28;20506;-63
2022/07/06 02:54:21;;;;;;;2.38;1.35;;;22.40;71.10;;;;;;5038392;28;20033;-62
2022/07/06 02:56:52;;;;;;;4.10;1.73;;;22.50;71.40;;;;;;5036353;28;20473;-62
2022/07/06 02:59:17;;;;;;;3.85;1.48;;;22.40;71.40;;;;;;5038822;28;20086;-61
2022/07/06 03:01:43;;;;;;;4.00;1.40;;;22.40;71.50;;;;;;5038316;28;20029;-62
2022/07/06 03:04:08;;;;;;;4.25;1.60;;;22.30;71.60;;;;;;5037748;28;20033;-61
2022/07/06 03:06:34;;;;;;;9.23;1.75;;;22.30;71.70;;;;;;5019269;28;20053;-61
2022/07/06 03:09:00;;;;;;;4.35;1.90;;;22.30;71.80;;;;;;5036410;28;20087;-63
2022/07/06 03:11:26;;;;;;;5.03;2.42;;;22.20;71.80;;;;;;5035319;28;20029;-62
2022/07/06 03:13:51;;;;;;;3.58;2.15;;;22.20;71.90;;;;;;5039577;28;20110;-61
2022/07/06 03:16:17;;;;;;;5.93;2.30;;;22.20;71.90;;;;;;5039478;28;20071;-63
2022/07/06 03:18:42;;;;;;;3.58;1.85;;;22.20;72.10;;;;;;5020809;28;20406;-61
2022/07/06 03:21:08;;;;;;;3.28;1.98;;;22.10;72.10;;;;;;5038864;28;20087;-61
2022/07/06 03:23:33;;;;;;;3.95;2.00;;;22.20;72.20;;;;;;5040883;28;20120;-63
2022/07/06 03:25:59;;;;;;;3.05;1.90;;;22.10;72.20;;;;;;5036982;28;20060;-60
2022/07/06 03:28:24;;;;;;;3.60;2.05;;;22.10;72.20;;;;;;5039911;28;20033;-62
2022/07/06 03:30:50;;;;;;;4.90;2.15;;;22.10;72.40;;;;;;5037860;28;20017;-61
2022/07/06 03:33:15;;;;;;;3.53;1.80;;;22.10;72.40;;;;;;5039880;28;21395;-61
2022/07/06 03:35:41;;;;;;;2.58;1.85;;;22.00;72.50;;;;;;5035418;28;20263;-62
2022/07/06 03:38:06;;;;;;;3.15;1.90;;;22.00;72.70;;;;;;5039038;28;20550;-61
2022/07/06 03:40:32;;;;;;;2.80;1.70;;;22.00;72.70;;;;;;5038771;28;20036;-61
2022/07/06 03:42:57;;;;;;;4.22;1.73;;;22.00;72.80;;;;;;5037751;28;20040;-62
2022/07/06 03:45:23;;;;;;;4.45;1.70;;;22.00;72.80;;;;;;5036758;28;20021;-61
2022/07/06 03:47:48;;;;;;;2.47;1.60;;;22.00;72.90;;;;;;5035601;28;20045;-61
2022/07/06 03:50:14;;;;;;;6.43;1.60;;;21.90;72.90;;;;;;5020014;28;20686;-61
2022/07/06 03:52:40;;;;;;;6.55;1.63;;;21.90;73.00;;;;;;5039727;28;20021;-61
2022/07/06 03:55:11;;;;;;;1.73;1.45;;;21.90;73.10;;;;;;5038252;28;20066;-61
2022/07/06 03:57:37;;;;;;;3.67;1.63;;;21.90;73.00;;;;;;5035079;28;20032;-61
2022/07/06 04:00:04;;;;;;;6.93;1.80;;;21.80;73.00;;;;;;5035437;28;20037;-62
2022/07/06 04:02:29;;;;;;;5.88;1.65;;;21.80;73.00;;;;;;5038338;28;20036;-61
2022/07/06 04:04:55;;;;;;;3.20;1.60;;;21.80;73.00;;;;;;5023798;28;20037;-62
2022/07/06 04:07:20;;;;;;;3.50;1.67;;;21.80;73.00;;;;;;5040075;28;20051;-61
2022/07/06 04:09:46;;;;;;;3.75;2.00;;;21.80;73.10;;;;;;5044117;28;20024;-61
2022/07/06 04:12:11;;;;;;;5.60;2.28;;;21.70;73.10;;;;;;5040990;28;20215;-61
2022/07/06 04:14:37;;;;;;;7.85;2.35;;;21.70;73.10;;;;;;5041393;28;20059;-62
2022/07/06 04:19:47;;;;;;;7.90;2.50;;;21.70;73.30;;;;;;5042114;28;20035;-62
2022/07/06 04:22:12;;;;;;;2.63;2.00;;;21.60;73.30;;;;;;5042492;28;20028;-62
2022/07/06 04:24:38;;;;;;;3.08;1.92;;;21.60;73.50;;;;;;5041451;28;20029;-61
2022/07/06 04:27:03;;;;;;;4.03;2.10;;;21.60;73.50;;;;;;5041451;28;20043;-61
2022/07/06 04:29:29;;;;;;;15.40;2.95;;;21.60;73.70;;;;;;5038530;28;20385;-61
2022/07/06 04:31:54;;;;;;;35.55;5.38;;;21.50;73.80;;;;;;5038406;28;20038;-61
2022/07/06 04:34:20;;;;;;;19.90;3.85;;;21.50;73.80;;;;;;5041691;28;20029;-61
2022/07/06 04:36:46;;;;;;;21.98;3.90;;;21.50;73.80;;;;;;5020306;28;20109;-62
2022/07/06 04:39:12;;;;;;;28.30;3.80;;;21.50;73.80;;;;;;5040158;28;20524;-60
2022/07/06 04:41:37;;;;;;;25.05;3.70;;;21.50;73.80;;;;;;5040620;28;20535;-60
2022/07/06 04:44:03;;;;;;;19.83;3.03;;;21.50;73.90;;;;;;5042706;28;20036;-62
2022/07/06 04:46:28;;;;;;;17.85;3.58;;;21.50;74.00;;;;;;5041939;28;20105;-62
2022/07/06 04:48:54;;;;;;;16.67;3.00;;;21.50;74.10;;;;;;5040146;28;20052;-61
2022/07/06 04:51:19;;;;;;;8.45;2.35;;;21.50;74.20;;;;;;5040015;28;20048;-61
2022/07/06 04:53:45;;;;;;;14.05;3.03;;;21.50;74.40;;;;;;5040460;28;20134;-61
2022/07/06 04:56:11;;;;;;;12.18;2.70;;;21.50;74.50;;;;;;5038014;28;20112;-60
2022/07/06 04:58:36;;;;;;;15.88;2.88;;;21.40;74.50;;;;;;5009657;28;20083;-62
2022/07/06 05:01:02;;;;;;;16.50;2.78;;;21.40;74.50;;;;;;5041691;28;20071;-61
2022/07/06 05:03:27;;;;;;;8.88;2.38;;;21.40;74.60;;;;;;5041138;28;20041;-62
2022/07/06 05:05:53;;;;;;;9.60;2.75;;;21.40;74.50;;;;;;5039115;28;20075;-61
2022/07/06 05:08:18;;;;;;;11.75;2.80;;;21.50;74.60;;;;;;5021902;28;20029;-63
2022/07/06 05:10:44;;;;;;;8.77;3.00;;;21.50;74.80;;;;;;5036648;28;20017;-61
2022/07/06 05:13:10;;;;;;;14.40;2.92;;;21.40;74.80;;;;;;5024050;28;20058;-61
2022/07/06 05:15:35;;;;;;;12.05;2.90;;;21.50;74.90;;;;;;5034429;28;20400;-61
2022/07/06 05:18:01;;;;;;;8.95;2.97;;;21.40;75.60;;;;;;5022931;28;20488;-62
2022/07/06 05:20:26;;;;;;;11.57;2.72;;;21.50;74.90;;;;;;5023171;28;20506;-61
2022/07/06 05:22:52;;;;;;;7.88;3.03;;;21.50;75.10;;;;;;5039600;28;20105;-62
2022/07/06 05:25:17;;;;;;;8.52;2.90;;;21.40;75.00;;;;;;5040404;28;20029;-61
2022/07/06 05:27:43;;;;;;;12.32;2.58;;;21.50;75.00;;;;;;5022067;28;20591;-61
2022/07/06 05:30:09;;;;;;;7.82;2.60;;;21.50;75.10;;;;;;5040417;28;20047;-62
2022/07/06 05:32:34;;;;;;;13.15;2.95;;;21.40;75.00;;;;;;5038449;28;20014;-61
2022/07/06 05:35:00;;;;;;;11.95;2.88;;;21.40;74.90;;;;;;5039288;28;20887;-62
2022/07/06 05:37:25;;;;;;;6.72;2.42;;;21.40;74.80;;;;;;5039852;28;20063;-62
2022/07/06 05:39:51;;;;;;;5.75;2.38;;;21.40;74.70;;;;;;5040422;28;20048;-61
2022/07/06 05:42:17;;;;;;;8.75;2.30;;;21.40;74.70;;;;;;5040687;28;20481;-63
2022/07/06 05:44:42;;;;;;;3.97;2.30;;;21.30;74.50;;;;;;5039640;28;20038;-63
2022/07/06 05:52:36;;;;;;;3.60;2.05;;;21.30;74.20;;;;;;5040053;28;20048;-62
2022/07/06 05:55:01;;;;;;;3.95;1.98;;;21.30;74.00;;;;;;5040068;28;20028;-62
2022/07/06 05:57:27;;;;;;;4.28;2.17;;;21.30;73.80;;;;;;5029637;28;20040;-62
2022/07/06 05:59:52;;;;;;;2.97;1.88;;;21.20;73.40;;;;;;5016327;28;20029;-61
2022/07/06 06:02:18;;;;;;;4.32;1.85;;;21.20;73.00;;;;;;5040047;28;20021;-61
2022/07/06 06:04:44;;;;;;;3.50;1.58;;;21.20;72.70;;;;;;5037672;28;20062;-63
2022/07/06 06:07:09;;;;;;;4.15;1.92;;;21.20;71.30;;;;;;5036324;28;20117;-63
2022/07/06 06:09:35;;;;;;;3.47;1.90;;;21.10;71.30;;;;;;5038198;28;20128;-61
2022/07/06 06:12:00;;;;;;;3.42;1.77;;;21.10;70.90;;;;;;5039788;28;20112;-62
2022/07/06 06:14:26;;;;;;;5.72;1.83;;;21.10;70.90;;;;;;5021215;28;20033;-61
2022/07/06 06:16:51;;;;;;;3.75;1.77;;;21.10;70.80;;;;;;5038302;28;20352;-61
2022/07/06 06:19:17;;;;;;;5.15;1.95;;;21.10;70.40;;;;;;5037218;28;20057;-62
2022/07/06 06:21:42;;;;;;;4.90;2.15;;;21.10;71.00;;;;;;5038275;28;20715;-62
2022/07/06 06:24:08;;;;;;;9.00;2.08;;;21.00;70.30;;;;;;5041112;28;20460;-61
2022/07/06 06:26:33;;;;;;;5.30;1.58;;;21.00;70.50;;;;;;5042926;28;20119;-62
2022/07/06 06:28:59;;;;;;;3.05;1.30;;;21.00;70.30;;;;;;5040755;28;20029;-61
2022/07/06 06:31:24;;;;;;;6.05;1.50;;;21.00;70.00;;;;;;5022374;28;20672;-62
2022/07/06 06:33:50;;;;;;;4.85;2.00;;;21.00;69.70;;;;;;5040147;28;20706;-61
2022/07/06 06:36:15;;;;;;;52.70;6.05;;;21.00;69.80;;;;;;5034355;28;20041;-62
2022/07/06 06:38:41;;;;;;;10.93;2.50;;;21.00;69.60;;;;;;5031068;28;20077;-63
2022/07/06 06:41:06;;;;;;;12.45;2.00;;;21.00;69.50;;;;;;5038333;28;20036;-62
2022/07/06 06:43:32;;;;;;;9.70;2.13;;;20.90;69.30;;;;;;5031571;28;20178;-62
2022/07/06 06:45:57;;;;;;;15.65;2.53;;;20.90;69.30;;;;;;5033427;28;20037;-62
2022/07/06 06:48:23;;;;;;;17.92;3.20;;;20.90;69.70;;;;;;5026787;28;20060;-62
2022/07/06 06:50:48;;;;;;;24.42;3.13;;;21.00;69.50;;;;;;5025872;28;20052;-62
2022/07/06 06:53:14;;;;;;;17.13;2.53;;;21.00;69.50;;;;;;5035899;28;20020;-61
2022/07/06 06:55:39;;;;;;;16.67;2.80;;;21.00;69.30;;;;;;5032435;28;20455;-63
2022/07/06 06:58:05;;;;;;;20.75;3.08;;;21.00;69.00;;;;;;5036260;28;20041;-63
2022/07/06 07:00:30;;;;;;;15.82;3.13;;;21.00;68.80;;;;;;5033712;28;20032;-62
2022/07/06 07:02:56;;;;;;;17.90;2.65;;;21.00;68.80;;;;;;5037754;28;20136;-62
2022/07/06 07:05:21;;;;;;;26.20;3.70;;;21.00;68.70;;;;;;5035310;28;20037;-63
2022/07/06 07:07:47;;;;;;;16.13;3.03;;;21.10;68.80;;;;;;5038235;28;20436;-62
2022/07/06 07:10:12;;;;;;;30.40;3.42;;;21.00;68.60;;;;;;5032077;28;20349;-63
2022/07/06 07:12:47;;;;;;;19.50;3.45;;;21.00;68.60;;;;;;5035396;28;20158;-61
2022/07/06 07:15:13;;;;;;;19.50;3.58;;;21.10;68.50;;;;;;5015682;28;20034;-62
2022/07/06 07:17:39;;;;;;;21.75;3.47;;;21.10;68.50;;;;;;5035668;28;20028;-64
2022/07/06 07:20:05;;;;;;;30.33;3.60;;;21.10;68.50;;;;;;5010447;28;20121;-61
2022/07/06 07:22:31;;;;;;;29.40;5.05;;;21.10;68.60;;;;;;5023247;28;20065;-61
2022/07/06 07:24:58;;;;;;;24.80;3.33;;;21.10;68.60;;;;;;5027133;28;20182;-62
2022/07/06 07:27:24;;;;;;;110.13;12.73;;;21.10;69.30;;;;;;5007881;28;20118;-63
2022/07/06 07:29:50;;;;;;;34.67;5.93;;;21.10;68.80;;;;;;5032359;28;20042;-63
2022/07/06 07:32:15;;;;;;;33.05;5.38;;;21.10;68.60;;;;;;5030369;28;20037;-62
2022/07/06 07:34:41;;;;;;;30.67;5.00;;;21.10;68.50;;;;;;5028634;28;20492;-63
2022/07/06 07:37:06;;;;;;;22.25;4.20;;;21.10;68.40;;;;;;5031359;28;20029;-63
2022/07/06 07:39:32;;;;;;;30.25;5.07;;;21.10;68.30;;;;;;5026532;28;20053;-62
2022/07/06 07:41:57;;;;;;;35.83;5.65;;;21.10;68.50;;;;;;5029050;28;20079;-61
2022/07/06 07:44:24;;;;;;;48.83;5.45;;;21.10;68.60;;;;;;5031907;28;20129;-62
2022/07/06 07:46:50;;;;;;;27.20;4.35;;;21.10;68.60;;;;;;5036375;28;20275;-62
2022/07/06 07:49:15;;;;;;;32.85;4.15;;;21.20;68.80;;;;;;5037617;28;20244;-62
2022/07/06 07:51:41;;;;;;;26.25;3.63;;;21.20;68.70;;;;;;5033535;28;20096;-61
2022/07/06 07:54:07;;;;;;;15.40;3.45;;;21.20;68.80;;;;;;5032049;28;20475;-63
2022/07/06 07:56:32;;;;;;;32.72;5.00;;;21.20;68.80;;;;;;5033024;28;20037;-61
2022/07/06 07:58:58;;;;;;;15.90;3.75;;;21.20;68.60;;;;;;5021841;28;20094;-61
2022/07/06 08:01:23;;;;;;;31.27;4.47;;;21.30;68.30;;;;;;5020407;28;20056;-62
2022/07/06 08:03:49;;;;;;;25.92;4.20;;;21.30;68.10;;;;;;5027691;28;20036;-62
2022/07/06 08:06:14;;;;;;;30.02;5.90;;;21.30;68.10;;;;;;5029490;28;20086;-61
2022/07/06 08:08:40;;;;;;;30.23;5.72;;;21.30;68.00;;;;;;5026665;28;20038;-61
2022/07/06 08:11:05;;;;;;;22.63;4.40;;;21.30;68.00;;;;;;5026322;28;20041;-63
2022/07/06 08:13:31;;;;;;;31.85;5.40;;;21.30;68.10;;;;;;5030626;28;20025;-61
2022/07/06 08:15:56;;;;;;;32.55;4.70;;;21.30;68.10;;;;;;5032674;28;20060;-61
2022/07/06 08:18:22;;;;;;;23.42;4.60;;;21.40;68.10;;;;;;5015575;28;20033;-62
2022/07/06 08:20:47;;;;;;;18.70;3.45;;;21.40;67.90;;;;;;5031906;28;20085;-63
2022/07/06 08:23:13;;;;;;;18.63;3.28;;;21.40;67.80;;;;;;5005961;28;20068;-62
2022/07/06 08:25:39;;;;;;;20.02;4.32;;;21.40;67.80;;;;;;5017126;28;20092;-61
2022/07/06 08:28:04;;;;;;;15.85;3.47;;;21.40;67.80;;;;;;5022549;28;20501;-63
2022/07/06 08:30:34;;;;;;;19.75;3.05;;;21.50;67.90;;;;;;5027663;28;20124;-63
2022/07/06 08:33:00;;;;;;;29.27;4.55;;;21.50;67.70;;;;;;5027379;28;20036;-62
2022/07/06 08:35:25;;;;;;;21.40;3.78;;;21.50;67.70;;;;;;4998099;28;20037;-62
2022/07/06 08:37:51;;;;;;;32.40;3.97;;;21.50;67.70;;;;;;5026602;28;20025;-61
2022/07/06 08:40:16;;;;;;;36.78;5.72;;;21.50;67.80;;;;;;5025139;28;20037;-62
2022/07/06 08:42:42;;;;;;;45.05;6.00;;;21.50;67.90;;;;;;5007287;28;20017;-61
2022/07/06 08:45:08;;;;;;;37.70;5.22;;;21.50;67.90;;;;;;5003642;28;20033;-63
2022/07/06 08:47:35;;;;;;;34.28;5.65;;;21.60;67.90;;;;;;5004820;28;20114;-61
2022/07/06 08:50:01;;;;;;;35.03;5.03;;;21.60;67.80;;;;;;5023656;28;20439;-61
2022/07/06 08:52:27;;;;;;;29.65;4.82;;;21.70;67.70;;;;;;5033161;28;20025;-63
2022/07/06 08:54:52;;;;;;;23.55;3.95;;;21.70;67.70;;;;;;5029111;28;20041;-63
2022/07/06 08:57:18;;;;;;;18.05;4.30;;;21.70;67.80;;;;;;5016854;28;20098;-61
2022/07/06 08:59:44;;;;;;;29.08;5.07;;;21.80;67.70;;;;;;5013710;28;20094;-63
2022/07/06 09:02:10;;;;;;;37.30;5.57;;;21.80;67.40;;;;;;5031932;28;20440;-61
2022/07/06 09:04:36;;;;;;;41.03;5.20;;;21.90;67.40;;;;;;5025882;28;20500;-62
2022/07/06 09:07:02;;;;;;;70.13;8.73;;;21.90;67.40;;;;;;5004139;28;20391;-62
2022/07/06 09:09:28;;;;;;;52.40;8.07;;;21.90;67.40;;;;;;5030938;28;20037;-61
2022/07/06 09:11:53;;;;;;;76.05;9.77;;;22.00;67.50;;;;;;5005181;28;20073;-62
2022/07/06 09:14:19;;;;;;;60.88;8.68;;;22.00;67.40;;;;;;5024246;28;20432;-62
2022/07/06 09:16:45;;;;;;;62.33;8.57;;;22.10;67.40;;;;;;5033603;28;20409;-63
2022/07/06 09:19:11;;;;;;;39.92;6.95;;;22.10;67.30;;;;;;5032850;28;20033;-62
2022/07/06 09:21:37;;;;;;;52.40;7.95;;;22.10;67.00;;;;;;5024857;28;20083;-61
2022/07/06 09:24:06;;;;;;;52.40;6.85;;;22.10;66.80;;;;;;5027079;28;20036;-63
2022/07/06 09:26:32;;;;;;;52.20;7.53;;;22.10;66.80;;;;;;5003532;28;20038;-63
2022/07/06 09:28:59;;;;;;;32.05;5.13;;;22.10;66.40;;;;;;5005155;28;20389;-62
2022/07/06 09:31:24;;;;;;;49.88;7.63;;;22.20;65.80;;;;;;4999027;28;20742;-61
2022/07/06 09:34:05;;;;;;;56.38;7.63;;;22.20;65.80;;;;;;5019141;28;20056;-61
2022/07/06 09:36:49;;;;;;;70.90;9.15;;;22.20;65.90;;;;;;5019588;28;20025;-62
2022/07/06 09:39:25;;;;;;;79.18;10.27;;;22.20;66.30;;;;;;5011605;28;20079;-62
2022/07/06 09:41:52;;;;;;;55.10;8.45;;;22.30;66.20;;;;;;5020726;28;20021;-62
2022/07/06 09:44:22;;;;;;;101.82;12.82;;;22.30;66.00;;;;;;4994935;28;20037;-63
2022/07/06 09:46:48;;;;;;;74.78;11.02;;;22.30;65.70;;;;;;5020308;28;20025;-61
2022/07/06 09:49:17;;;;;;;61.78;7.78;;;22.30;65.70;;;;;;5007544;28;20052;-62
2022/07/06 09:51:43;;;;;;;70.57;8.25;;;22.40;65.20;;;;;;5020525;28;20504;-62
2022/07/06 09:54:09;;;;;;;72.28;8.38;;;22.40;65.50;;;;;;5002198;28;20183;-63
2022/07/06 09:56:38;;;;;;;57.00;7.53;;;22.40;65.40;;;;;;5021445;28;20045;-62
2022/07/06 09:59:11;;;;;;;61.33;6.80;;;22.50;65.40;;;;;;5012619;28;20029;-60
2022/07/06 10:01:39;;;;;;;58.55;7.95;;;22.50;65.10;;;;;;5008641;28;20082;-61
2022/07/06 10:04:06;;;;;;;62.33;8.73;;;22.50;65.20;;;;;;4989729;28;21792;-63
2022/07/06 10:06:31;;;;;;;37.97;6.93;;;22.60;65.30;;;;;;5007570;28;21645;-61
2022/07/06 10:08:58;;;;;;;47.47;7.05;;;22.60;65.30;;;;;;5006507;28;20139;-63
2022/07/06 10:11:24;;;;;;;33.90;5.95;;;22.60;65.30;;;;;;4990338;28;20049;-63
2022/07/06 10:13:49;;;;;;;57.25;7.25;;;22.60;65.40;;;;;;5010753;28;20048;-62
2022/07/06 10:16:14;;;;;;;45.80;6.07;;;22.70;65.40;;;;;;5009999;28;20162;-61
2022/07/06 10:18:40;;;;;;;60.00;7.13;;;22.70;65.50;;;;;;4999659;28;20432;-62
2022/07/06 10:21:06;;;;;;;65.43;7.90;;;22.70;65.40;;;;;;5022775;28;20465;-62
2022/07/06 10:23:31;;;;;;;48.47;7.07;;;22.70;65.20;;;;;;5021959;28;20129;-62
2022/07/06 10:25:57;;;;;;;47.42;6.28;;;22.80;65.30;;;;;;4993237;28;20680;-62
2022/07/06 10:28:23;;;;;;;44.70;6.45;;;22.80;65.30;;;;;;5006330;28;20704;-63
2022/07/06 10:30:49;;;;;;;68.97;7.80;;;22.90;65.30;;;;;;5008081;28;20022;-63
2022/07/06 10:33:14;;;;;;;47.90;6.35;;;22.90;65.30;;;;;;5003820;28;20141;-66
2022/07/06 10:35:40;;;;;;;38.20;6.70;;;23.00;65.30;;;;;;4995824;28;20048;-61
2022/07/06 10:38:09;;;;;;;40.95;7.55;;;23.00;65.20;;;;;;5010237;28;20608;-62
2022/07/06 10:43:20;;;;;;;45.73;7.07;;;23.10;64.80;;;;;;5016123;28;20047;-64
2022/07/06 10:45:45;;;;;;;53.55;7.28;;;23.20;64.70;;;;;;5025294;28;20029;-62
2022/07/06 10:48:11;;;;;;;44.03;5.82;;;23.20;64.60;;;;;;5013385;28;20105;-61
2022/07/06 10:50:37;;;;;;;36.35;6.30;;;23.30;64.40;;;;;;5018369;28;20644;-62
2022/07/06 10:53:03;;;;;;;44.58;6.43;;;23.40;64.40;;;;;;5003857;28;20076;-63
2022/07/06 10:55:32;;;;;;;38.35;6.00;;;23.40;64.30;;;;;;5013970;28;20033;-62
2022/07/06 10:57:58;;;;;;;30.70;5.55;;;23.50;64.50;;;;;;5020209;28;20377;-63
2022/07/06 11:00:24;;;;;;;49.08;5.97;;;23.60;64.30;;;;;;5014443;28;23596;-63
2022/07/06 11:02:50;;;;;;;53.63;6.80;;;23.60;64.20;;;;;;5009446;28;20107;-62
2022/07/06 11:05:41;;;;;;;65.35;9.55;;;23.70;64.10;;;;;;5003817;28;20128;-61
2022/07/06 11:08:09;;;;;;;60.67;7.72;;;23.80;64.30;;;;;;5015270;28;20507;-62
2022/07/06 11:10:47;;;;;;;46.72;6.85;;;23.90;64.10;;;;;;5019930;28;20532;-62
2022/07/06 11:13:28;;;;;;;43.05;5.47;;;24.00;63.80;;;;;;5018810;28;20068;-61
2022/07/06 11:16:01;;;;;;;41.05;6.07;;;24.10;63.50;;;;;;5022613;28;20060;-62
2022/07/06 11:18:27;;;;;;;40.80;5.88;;;24.20;63.00;;;;;;5007686;28;20405;-64
2022/07/06 11:21:22;;;;;;;44.38;5.30;;;24.20;62.80;;;;;;5006711;28;20037;-62
2022/07/06 11:23:49;;;;;;;33.67;5.38;;;24.40;62.50;;;;;;5015607;28;20119;-63
2022/07/06 11:26:15;;;;;;;29.40;4.85;;;24.50;62.10;;;;;;5000729;28;20676;-62
2022/07/06 11:28:41;;;;;;;32.65;5.05;;;24.50;61.80;;;;;;5020997;28;20033;-61
2022/07/06 11:31:06;;;;;;;26.95;4.85;;;24.60;61.70;;;;;;5021618;28;20503;-63
2022/07/06 11:33:32;;;;;;;24.90;4.47;;;24.60;61.70;;;;;;5020757;28;20032;-63
2022/07/06 11:36:12;;;;;;;37.35;4.70;;;24.70;61.30;;;;;;5015305;28;20182;-62
2022/07/06 11:38:37;;;;;;;24.10;4.57;;;24.70;61.30;;;;;;5004943;28;20045;-63
2022/07/06 11:41:03;;;;;;;24.40;3.72;;;24.80;61.10;;;;;;5020499;28;20037;-64
2022/07/06 11:43:28;;;;;;;20.30;4.00;;;24.90;60.70;;;;;;5002365;28;20045;-61
2022/07/06 11:45:54;;;;;;;24.30;4.13;;;25.00;60.60;;;;;;5017559;28;20127;-63
2022/07/06 11:48:19;;;;;;;23.98;3.92;;;25.00;60.10;;;;;;5019311;28;20039;-62
2022/07/06 11:50:57;;;;;;;28.17;3.88;;;25.10;60.00;;;;;;5019553;28;20044;-62
2022/07/06 11:53:23;;;;;;;25.75;4.72;;;25.20;59.70;;;;;;5013105;28;20507;-62
2022/07/06 11:55:48;;;;;;;46.20;5.03;;;25.30;59.60;;;;;;5012137;28;20033;-63
2022/07/06 11:58:14;;;;;;;37.47;4.97;;;25.40;59.50;;;;;;5019186;28;20074;-61
2022/07/06 12:00:39;;;;;;;34.10;4.55;;;25.40;59.30;;;;;;5020567;28;20355;-61
2022/07/06 12:03:05;;;;;;;38.97;4.88;;;25.50;59.10;;;;;;5027599;28;20038;-64
2022/07/06 12:05:31;;;;;;;33.20;4.45;;;25.50;59.20;;;;;;5021109;28;20762;-63
2022/07/06 12:08:06;;;;;;;29.80;4.47;;;25.60;59.00;;;;;;5020746;28;20037;-63
2022/07/06 12:10:34;;;;;;;35.67;5.35;;;25.70;59.00;;;;;;4999752;28;20048;-61
2022/07/06 12:13:04;;;;;;;51.75;6.55;;;25.80;58.60;;;;;;5029050;28;20044;-62
2022/07/06 12:15:29;;;;;;;39.38;4.38;;;25.90;58.70;;;;;;5021493;28;20025;-63
2022/07/06 12:17:55;;;;;;;32.60;5.05;;;26.00;58.50;;;;;;5009558;28;20040;-62
2022/07/06 12:20:20;;;;;;;41.40;4.78;;;26.10;58.10;;;;;;5012078;28;20026;-63
2022/07/06 12:22:46;;;;;;;43.08;5.50;;;26.20;57.70;;;;;;5024290;28;20153;-65
2022/07/06 12:25:11;;;;;;;16.02;3.10;;;26.30;57.50;;;;;;5022441;28;20769;-62
2022/07/06 12:27:37;;;;;;;26.38;4.35;;;26.40;57.10;;;;;;5009530;28;20505;-62
2022/07/06 12:30:09;;;;;;;41.88;5.35;;;26.60;56.80;;;;;;5021786;28;20084;-63
2022/07/06 12:32:36;;;;;;;105.03;13.23;;;26.60;56.50;;;;;;5011206;28;20181;-63
2022/07/06 12:35:08;;;;;;;38.78;6.03;;;26.70;56.60;;;;;;5028786;28;20032;-62
2022/07/06 12:37:34;;;;;;;31.45;4.20;;;26.70;56.70;;;;;;5011242;28;20037;-62
2022/07/06 12:40:00;;;;;;;33.20;4.50;;;26.80;56.40;;;;;;5016334;28;20381;-63
2022/07/06 12:42:26;;;;;;;33.13;3.95;;;26.90;56.20;;;;;;5011761;28;20132;-63
2022/07/06 12:44:51;;;;;;;27.67;4.18;;;26.90;56.40;;;;;;5023367;28;20029;-63
2022/07/06 12:47:18;;;;;;;26.58;4.32;;;26.90;55.80;;;;;;5014044;28;20751;-64